»·PEaware :: N463PA KPSP-KSMO

N463PA :: KPSP-KSMO

FLIGHT INFORMATION

Flight Status: Arrived
Operator: Privately registered:
United States
More flights under this callsign
Pilot: Vinicius U. (17612)
Aircraft: PIPER PA-44 SEMINOLE
(PA44)
More flights by this aircraft type
Origin: KPSP Palm Springs Intl
United States
Destination: KSMO Santa Monica Mun
United States
More flights between these airports :: More routes between these airports
Route: +CATH1 PSP V388 PDZ V186 DARTS
File this flight plan on PilotEdge
Remarks:
Altitude:
(Current/Filed)
F100
Speed:
(Current/Filed)
140kts
Departed: 27-Dec-17 12:58 PM
Arrived: 27-Dec-17 01:45 PM
Distance/Time
Traveled:
97nm/0:47
Distance/Time
To Go:
Arrived

Flight Plot

Page will automatically refresh every two minutes.


Map Options




Map Legend


Flown Route
Filed Route
Departure Airport
Arrival Airport
Navaid (VOR, NDB)
Fix

Horizontal Profiles

Position Reports

Time Latitude Longitude Heading Altitude Ground
Speed
27-Dec-17 12:44 33.820869 -116.495054 141 480ft 0kts
27-Dec-17 12:45 33.820869 -116.495054 141 480ft 0kts
27-Dec-17 12:46 33.820869 -116.495054 141 480ft 0kts
27-Dec-17 12:47 33.820869 -116.495054 141 480ft 0kts
27-Dec-17 12:48 33.820869 -116.495054 141 480ft 0kts
27-Dec-17 12:49 33.820869 -116.495054 141 480ft 0kts
27-Dec-17 12:50 33.820869 -116.495054 141 480ft 0kts
27-Dec-17 12:51 33.820869 -116.495054 141 480ft 0kts
27-Dec-17 12:52 33.820869 -116.495054 141 480ft 0kts
27-Dec-17 12:53 33.820869 -116.495054 141 480ft 0kts
27-Dec-17 12:54 33.820869 -116.495054 141 480ft 0kts
27-Dec-17 12:55 33.820868 -116.495054 141 480ft 0kts
27-Dec-17 12:56 33.820868 -116.495053 141 480ft 0kts
27-Dec-17 12:57 33.820867 -116.495052 141 480ft 0kts
27-Dec-17 12:58 33.819559 -116.494476 218 480ft 7kts
27-Dec-17 12:59 33.818317 -116.496623 236 480ft 0kts
27-Dec-17 13:00 33.818287 -116.496681 236 480ft 0kts
27-Dec-17 13:01 33.818283 -116.496687 236 480ft 0kts
27-Dec-17 13:02 33.818282 -116.496689 236 480ft 0kts
27-Dec-17 13:03 33.818520 -116.497742 321 480ft 20kts
27-Dec-17 13:04 33.835909 -116.513131 322 1147ft 109kts
27-Dec-17 13:05 33.860602 -116.534649 328 2054ft 112kts
27-Dec-17 13:06 33.884273 -116.559199 318 2992ft 103kts
27-Dec-17 13:07 33.909646 -116.572078 35 3830ft 124kts
27-Dec-17 13:08 33.904706 -116.534160 108 4917ft 119kts
27-Dec-17 13:09 33.894696 -116.493622 83 5685ft 131kts
27-Dec-17 13:10 33.918646 -116.472303 332 6468ft 125kts
27-Dec-17 13:11 33.923634 -116.510216 264 7350ft 128kts
27-Dec-17 13:12 33.918324 -116.552879 264 8054ft 132kts
27-Dec-17 13:13 33.914113 -116.595581 265 8865ft 128kts
27-Dec-17 13:14 33.919416 -116.636873 288 9614ft 126kts
27-Dec-17 13:15 33.931438 -116.678904 289 9944ft 147kts
27-Dec-17 13:16 33.945399 -116.726930 286 9983ft 158kts
27-Dec-17 13:17 33.956201 -116.777792 268 9974ft 162kts
27-Dec-17 13:18 33.950783 -116.831585 265 10003ft 157kts
27-Dec-17 13:19 33.946609 -116.884420 264 10043ft 159kts
27-Dec-17 13:20 33.942193 -116.938388 264 9895ft 166kts
27-Dec-17 13:21 33.938101 -116.996359 266 9272ft 177kts
27-Dec-17 13:22 33.935051 -117.056102 266 8703ft 174kts
27-Dec-17 13:23 33.931219 -117.115638 266 8129ft 180kts
27-Dec-17 13:24 33.932190 -117.175263 268 7687ft 178kts
27-Dec-17 13:25 33.930596 -117.235906 268 7022ft 181kts
27-Dec-17 13:26 33.928798 -117.296549 267 6434ft 179kts
27-Dec-17 13:27 33.926883 -117.356224 264 6026ft 173kts
27-Dec-17 13:28 33.923616 -117.412362 269 6015ft 169kts
27-Dec-17 13:29 33.920293 -117.467700 262 6061ft 163kts
27-Dec-17 13:30 33.919007 -117.523189 268 6032ft 164kts
27-Dec-17 13:31 33.932365 -117.574258 307 6026ft 159kts
27-Dec-17 13:32 33.950469 -117.623278 290 6035ft 161kts
27-Dec-17 13:33 33.966434 -117.674592 290 6032ft 161kts
27-Dec-17 13:34 33.986352 -117.723870 292 5995ft 163kts
27-Dec-17 13:35 34.003253 -117.774619 291 5994ft 164kts
27-Dec-17 13:36 34.021285 -117.825092 290 5990ft 164kts
27-Dec-17 13:37 34.038004 -117.875964 291 6018ft 163kts
27-Dec-17 13:38 34.056488 -117.926246 296 5995ft 164kts
27-Dec-17 13:39 34.075850 -117.976044 289 5993ft 163kts
27-Dec-17 13:40 34.085800 -118.029329 280 5973ft 163kts
27-Dec-17 13:41 34.097543 -118.085909 285 5422ft 167kts
27-Dec-17 13:42 34.108734 -118.142756 283 4719ft 177kts
27-Dec-17 13:43 34.122913 -118.197364 283 4387ft 168kts
27-Dec-17 13:44 34.134663 -118.252033 279 4038ft 166kts
27-Dec-17 13:45 34.129378 -118.301592 223 3846ft 159kts
27-Dec-17 13:46 34.102143 -118.337613 229 3051ft 128kts
27-Dec-17 13:47 34.079724 -118.365362 225 2326ft 104kts
27-Dec-17 13:48 34.061133 -118.388900 230 1665ft 91kts
27-Dec-17 13:49 34.045450 -118.413018 235 1396ft 93kts
27-Dec-17 13:50 34.028291 -118.436660 225 532ft 90kts
27-Dec-17 13:51 34.014808 -118.452488 224 178ft 38kts
27-Dec-17 13:52 34.013267 -118.453396 132 178ft 0kts
27-Dec-17 13:53 34.013266 -118.453395 132 178ft 0kts
27-Dec-17 13:54 34.016518 -118.449268 45 178ft 20kts
27-Dec-17 13:55 34.016534 -118.448612 133 178ft 0kts
27-Dec-17 13:56 34.016534 -118.448612 133 178ft 0kts
27-Dec-17 13:57 34.016534 -118.448612 133 178ft 0kts
27-Dec-17 13:58 34.016534 -118.448612 133 178ft 0kts
27-Dec-17 13:59 34.016534 -118.448612 133 178ft 0kts
27-Dec-17 14:00 34.016534 -118.448612 133 178ft 0kts
27-Dec-17 14:01 34.016534 -118.448612 133 178ft 0kts
27-Dec-17 14:02 34.016534 -118.448612 133 178ft 0kts
27-Dec-17 14:03 34.016534 -118.448612 133 178ft 0kts
27-Dec-17 14:04 34.016534 -118.448612 133 178ft 0kts
27-Dec-17 14:05 34.016534 -118.448612 133 178ft 0kts
27-Dec-17 14:06 34.016534 -118.448612 133 178ft 0kts

Navigation Log

Ident Type
1. KPSP Airport
2. PSP Navaid
3. DEWAY Fix
4. ACINS Fix
5. LENHO Fix
6. KNDAL Fix
7. PDZ Navaid
8. TIFNI Fix
9. BAYJY Fix
10. ADAMM Fix
11. PIRRO Fix
12. ITSME Fix
13. ELMOO Fix
14. PURMS Fix
15. DARTS Fix
16. KSMO Airport